Delta Virtual Airport Information Service

Auckland Airport

ICAO: NZAA Country: New Zealand
Latitude: -37.008 Longitude: 174.792
Latest Arrival : DAC169 (KORD-NZAA) Latest Departure : ANZ1919 (A) (NZAA-NZWN)


WX CaptureLIVE
Data provided by noaa.gov | Fetched at 13:02:35

METAR : NZAA 241730Z AUTO 02005KT 9999 BKN030/// 17/15 Q1026 NOSIG

TAF : NZAA 241711Z 2418/2518 02008KT 9999 SCT025 PROB40 TEMPO 2512/2518 BKN014


Runway Data for NZAA
Data provided by openaviationdata.com

Runway ID Mag Var Hdg Length Elevation Surface ILS Freq ILS Id ILS Slope
05R 20 50° 11925 ft 23 ft Concrete 110.3 IAA 3
23L 20 230° 11925 ft 23 ft Concrete 109.9 IMG 3

Auckland Airport, New Zealand
Use only for reference purposes



Not for navigational purposes.